createdAt,value
2023-02-24T00:02:04.454Z,28.30
2023-02-24T00:04:41.234Z,34.97
2023-02-24T00:07:11.177Z,28.15
2023-02-24T00:09:39.809Z,29.10
2023-02-24T00:12:11.963Z,20.02
2023-02-24T00:14:44.332Z,18.15
2023-02-24T00:17:16.297Z,17.33
2023-02-24T00:19:46.022Z,16.80
2023-02-24T00:22:13.771Z,16.15
2023-02-24T00:24:42.216Z,13.05
2023-02-24T00:27:12.900Z,13.02
2023-02-24T00:29:42.281Z,12.77
2023-02-24T00:32:13.368Z,13.40
2023-02-24T00:34:43.284Z,12.93
2023-02-24T00:37:12.189Z,12.38
2023-02-24T00:39:41.699Z,11.75
2023-02-24T00:42:12.051Z,10.63
2023-02-24T00:44:45.707Z,11.07
2023-02-24T00:47:17.401Z,10.93
2023-02-24T00:49:45.310Z,9.13
2023-02-24T00:52:28.825Z,9.68
2023-02-24T00:55:01.018Z,9.40
2023-02-24T00:57:30.852Z,9.02
2023-02-24T00:59:58.797Z,9.68
2023-02-24T01:02:26.811Z,8.70
2023-02-24T01:04:55.525Z,9.68
2023-02-24T01:07:23.553Z,9.65
2023-02-24T01:09:51.323Z,8.32
2023-02-24T01:12:38.793Z,9.45
2023-02-24T01:15:09.281Z,8.80
2023-02-24T01:17:37.984Z,9.82
2023-02-24T01:20:19.753Z,9.68
2023-02-24T01:22:53.659Z,9.88
2023-02-24T01:25:22.519Z,8.93
2023-02-24T01:27:50.712Z,9.57
2023-02-24T01:30:18.814Z,8.90
2023-02-24T01:32:47.916Z,9.13
2023-02-24T01:35:16.396Z,9.68
2023-02-24T01:37:45.508Z,9.32
2023-02-24T01:40:21.170Z,8.50
2023-02-24T01:42:49.758Z,9.27
2023-02-24T01:45:22.160Z,8.52
2023-02-24T01:47:50.834Z,9.75
2023-02-24T01:50:22.159Z,10.48
2023-02-24T01:52:56.255Z,9.43
2023-02-24T01:55:29.404Z,9.70
2023-02-24T01:58:00.807Z,8.88
2023-02-24T02:00:37.357Z,9.40
2023-02-24T02:03:11.189Z,9.43
2023-02-24T02:05:40.989Z,9.70
2023-02-24T02:08:11.307Z,9.10
2023-02-24T02:10:41.458Z,9.70
2023-02-24T02:13:14.465Z,9.65
2023-02-24T02:15:53.043Z,9.80
2023-02-24T02:18:41.066Z,8.77
2023-02-24T02:21:24.981Z,7.50
2023-02-24T02:24:23.300Z,9.73
2023-02-24T02:26:58.779Z,9.00
2023-02-24T02:29:46.151Z,8.45
2023-02-24T02:32:55.589Z,8.43
2023-02-24T02:35:36.884Z,8.02
2023-02-24T02:38:15.357Z,8.63
2023-02-24T02:41:14.314Z,8.23
2023-02-24T02:44:02.846Z,8.73
2023-02-24T02:46:56.567Z,7.95
2023-02-24T02:49:32.453Z,8.00
2023-02-24T02:52:26.801Z,7.22
2023-02-24T02:55:00.737Z,7.38
2023-02-24T02:57:31.687Z,7.72
2023-02-24T03:00:14.377Z,7.05
2023-02-24T03:02:48.407Z,7.13
2023-02-24T03:05:20.820Z,7.65
2023-02-24T03:07:54.813Z,7.15
2023-02-24T03:10:27.795Z,6.88
2023-02-24T03:13:02.160Z,7.60
2023-02-24T03:15:33.079Z,7.35
2023-02-24T03:18:15.744Z,7.50
2023-02-24T03:20:51.993Z,7.85
2023-02-24T03:23:26.175Z,8.48
2023-02-24T03:26:01.369Z,7.50
2023-02-24T03:28:40.372Z,6.38
2023-02-24T03:31:18.413Z,7.20
2023-02-24T03:34:20.419Z,8.15
2023-02-24T03:36:54.501Z,8.18
2023-02-24T03:39:25.476Z,7.00
2023-02-24T03:42:15.712Z,7.20
2023-02-24T03:44:45.573Z,7.40
2023-02-24T03:47:16.307Z,8.02
2023-02-24T03:49:44.107Z,7.57
2023-02-24T03:52:37.656Z,7.05
2023-02-24T03:55:08.658Z,8.05
2023-02-24T03:58:04.801Z,8.00
2023-02-24T04:00:44.925Z,8.23
2023-02-24T04:03:31.280Z,7.75
2023-02-24T04:06:28.858Z,7.53
2023-02-24T04:09:36.218Z,8.60
2023-02-24T04:12:27.191Z,8.23
2023-02-24T04:15:09.440Z,8.20
2023-02-24T04:17:40.201Z,8.60
2023-02-24T04:20:13.714Z,8.73
2023-02-24T04:22:49.816Z,9.13
2023-02-24T04:25:24.580Z,11.35
2023-02-24T04:27:58.442Z,10.85
2023-02-24T04:30:30.894Z,7.68
2023-02-24T04:32:59.177Z,8.30
2023-02-24T04:35:28.098Z,8.38
2023-02-24T04:37:57.014Z,8.45
2023-02-24T04:40:26.017Z,7.57
2023-02-24T04:42:54.707Z,7.93
2023-02-24T04:45:29.361Z,7.55
2023-02-24T04:48:02.290Z,7.65
2023-02-24T04:50:36.128Z,8.95
2023-02-24T04:53:09.848Z,8.52
2023-02-24T04:55:40.737Z,9.15
2023-02-24T04:58:14.155Z,8.98
2023-02-24T05:00:42.386Z,8.20
2023-02-24T05:03:12.100Z,10.50
2023-02-24T05:05:42.954Z,9.55
2023-02-24T05:08:10.979Z,10.35
2023-02-24T05:10:41.514Z,11.63
2023-02-24T05:13:13.972Z,11.45
2023-02-24T05:15:43.037Z,10.73
2023-02-24T05:18:17.319Z,9.98
2023-02-24T05:21:06.935Z,10.20
2023-02-24T05:23:40.677Z,9.65
2023-02-24T05:26:29.108Z,8.82
2023-02-24T05:28:59.746Z,10.27
2023-02-24T05:31:29.664Z,9.55
2023-02-24T05:34:02.944Z,9.32
2023-02-24T05:36:36.651Z,9.05
2023-02-24T05:39:08.138Z,8.52
2023-02-24T05:41:38.897Z,11.30
2023-02-24T05:44:13.747Z,9.07
2023-02-24T05:46:47.145Z,8.63
2023-02-24T05:49:24.184Z,9.05
2023-02-24T05:51:56.219Z,9.10
2023-02-24T05:54:31.833Z,8.80
2023-02-24T05:57:05.417Z,8.80
2023-02-24T05:59:34.040Z,8.35
2023-02-24T06:02:16.063Z,9.20
2023-02-24T06:04:51.339Z,8.82
2023-02-24T06:07:34.290Z,8.23
2023-02-24T06:10:10.022Z,8.57
2023-02-24T06:12:39.990Z,7.90
2023-02-24T06:15:10.856Z,8.77
2023-02-24T06:17:39.582Z,8.25
2023-02-24T06:20:15.726Z,8.20
2023-02-24T06:22:43.571Z,8.30
2023-02-24T06:25:14.260Z,9.07
2023-02-24T06:27:43.239Z,8.82
2023-02-24T06:30:11.427Z,7.05
2023-02-24T06:32:39.317Z,9.20
2023-02-24T06:35:07.121Z,8.52
2023-02-24T06:37:36.655Z,7.88
2023-02-24T06:40:15.776Z,7.80
2023-02-24T06:42:55.216Z,8.77
2023-02-24T06:45:24.509Z,8.40
2023-02-24T06:47:52.692Z,7.72
2023-02-24T06:50:21.987Z,7.63
2023-02-24T06:52:50.572Z,7.80
2023-02-24T06:55:27.954Z,8.48
2023-02-24T06:58:04.706Z,8.10
2023-02-24T07:00:43.023Z,7.80
2023-02-24T07:03:16.730Z,7.50
2023-02-24T07:06:11.248Z,7.35
2023-02-24T07:08:38.955Z,6.45
2023-02-24T07:11:08.015Z,6.57
2023-02-24T07:13:36.835Z,7.97
2023-02-24T07:16:07.614Z,10.70
2023-02-24T07:21:05.324Z,8.35
2023-02-24T07:23:33.076Z,7.38
2023-02-24T07:26:00.701Z,9.15
2023-02-24T07:28:28.209Z,8.30
2023-02-24T07:30:57.400Z,7.45
2023-02-24T07:35:53.998Z,7.50
2023-02-24T07:38:23.053Z,7.10
2023-02-24T07:40:51.058Z,8.05
2023-02-24T07:43:19.241Z,6.97
2023-02-24T07:45:47.533Z,7.30
2023-02-24T07:48:15.312Z,7.07
2023-02-24T07:50:43.622Z,6.95
2023-02-24T07:53:11.136Z,6.57
2023-02-24T07:55:38.619Z,6.65
2023-02-24T07:58:06.738Z,6.13
2023-02-24T08:00:50.406Z,6.55
2023-02-24T08:03:18.244Z,6.97
2023-02-24T08:05:45.830Z,7.05
2023-02-24T08:08:21.074Z,6.65
2023-02-24T08:10:48.870Z,6.70
2023-02-24T08:13:19.248Z,6.63
2023-02-24T08:15:56.600Z,6.13
2023-02-24T08:18:24.253Z,6.85
2023-02-24T08:20:52.482Z,6.40
2023-02-24T08:23:20.276Z,8.43
2023-02-24T08:25:48.428Z,6.70
2023-02-24T08:28:16.076Z,7.05
2023-02-24T08:30:47.599Z,8.82
2023-02-24T08:33:22.289Z,7.82
2023-02-24T08:36:01.407Z,9.45
2023-02-24T08:38:44.635Z,9.57
2023-02-24T08:41:22.196Z,7.72
2023-02-24T08:43:50.173Z,6.43
2023-02-24T08:46:26.831Z,6.30
2023-02-24T08:48:58.028Z,6.40
2023-02-24T08:51:43.784Z,6.47
2023-02-24T08:54:27.542Z,6.78
2023-02-24T08:56:56.506Z,6.40
2023-02-24T08:59:41.062Z,7.88
2023-02-24T09:02:20.829Z,6.50
2023-02-24T09:04:59.855Z,6.38
2023-02-24T09:07:35.681Z,6.63
2023-02-24T09:10:18.330Z,5.78
2023-02-24T09:12:49.385Z,5.78
2023-02-24T09:15:17.098Z,5.78
2023-02-24T09:17:47.611Z,5.88
2023-02-24T09:20:39.362Z,5.38
2023-02-24T09:23:08.746Z,5.45
2023-02-24T09:25:49.607Z,4.70
2023-02-24T09:28:20.008Z,4.40
2023-02-24T09:30:55.455Z,4.40
2023-02-24T09:33:38.985Z,4.65
2023-02-24T09:36:10.234Z,4.82
2023-02-24T09:39:01.051Z,5.22
2023-02-24T09:42:04.013Z,4.18
2023-02-24T09:44:45.285Z,4.63
2023-02-24T09:47:31.468Z,3.92
2023-02-24T09:50:47.326Z,4.25
2023-02-24T09:53:20.157Z,4.00
2023-02-24T09:56:03.993Z,4.65
2023-02-24T09:58:48.326Z,4.70
2023-02-24T10:01:43.478Z,4.75
2023-02-24T10:04:33.935Z,4.45
2023-02-24T10:07:11.294Z,4.63
2023-02-24T10:10:11.254Z,4.38
2023-02-24T10:12:41.748Z,4.25
2023-02-24T10:15:19.057Z,4.20
2023-02-24T10:18:29.573Z,4.25
2023-02-24T10:21:04.582Z,4.63
2023-02-24T10:23:56.728Z,4.57
2023-02-24T10:26:34.878Z,4.55
2023-02-24T10:29:22.807Z,5.00
2023-02-24T10:31:58.431Z,5.35
2023-02-24T10:34:33.510Z,4.00
2023-02-24T10:37:28.137Z,4.88
2023-02-24T10:40:10.145Z,5.03
2023-02-24T10:42:45.980Z,4.43
2023-02-24T10:45:25.339Z,4.05
2023-02-24T10:47:59.608Z,4.38
2023-02-24T10:50:55.246Z,10.50
2023-02-24T10:53:41.027Z,5.43
2023-02-24T10:56:42.739Z,4.70
2023-02-24T10:59:41.220Z,4.20
2023-02-24T11:02:24.964Z,4.55
2023-02-24T11:05:02.535Z,4.43
2023-02-24T11:07:54.086Z,4.18
2023-02-24T11:10:42.752Z,4.18
2023-02-24T11:13:36.030Z,4.43
2023-02-24T11:16:23.256Z,4.35
2023-02-24T11:18:52.746Z,4.15
2023-02-24T11:21:26.162Z,4.80
2023-02-24T11:23:59.798Z,4.85
2023-02-24T11:26:38.039Z,5.63
2023-02-24T11:29:44.419Z,6.30
2023-02-24T11:32:22.181Z,5.00
2023-02-24T11:35:00.485Z,4.38
2023-02-24T11:37:49.334Z,3.97
2023-02-24T11:40:29.608Z,5.45
2023-02-24T11:43:18.634Z,4.78
2023-02-24T11:46:04.713Z,5.18
2023-02-24T11:48:46.136Z,5.00
2023-02-24T11:51:27.882Z,4.95
2023-02-24T11:54:01.209Z,5.53
2023-02-24T11:56:35.872Z,6.85
2023-02-24T11:59:52.081Z,6.50
2023-02-24T12:02:45.070Z,5.57
2023-02-24T12:05:42.180Z,4.30
2023-02-24T12:08:17.393Z,5.82
2023-02-24T12:10:54.071Z,5.13
2023-02-24T12:14:06.985Z,4.93
2023-02-24T12:16:45.936Z,5.10
2023-02-24T12:19:29.145Z,4.63
2023-02-24T12:22:06.027Z,4.07
2023-02-24T12:24:36.886Z,5.38
2023-02-24T12:27:13.294Z,4.80
2023-02-24T12:30:06.720Z,5.38
2023-02-24T12:32:47.341Z,7.25
2023-02-24T12:35:20.104Z,4.38
2023-02-24T12:38:24.264Z,4.38
2023-02-24T12:41:18.931Z,8.70
2023-02-24T12:44:00.668Z,5.25
2023-02-24T12:46:34.826Z,5.03
2023-02-24T12:49:12.122Z,4.90
2023-02-24T12:52:14.010Z,4.95
2023-02-24T12:54:52.002Z,5.13
2023-02-24T12:57:39.392Z,5.03
2023-02-24T13:00:16.815Z,5.25
2023-02-24T13:02:55.759Z,5.65
2023-02-24T13:05:36.163Z,5.22
2023-02-24T13:08:42.422Z,5.57
2023-02-24T13:11:48.134Z,5.10
2023-02-24T13:14:30.103Z,5.18
2023-02-24T13:17:20.706Z,5.50
2023-02-24T13:19:49.716Z,5.00
2023-02-24T13:22:28.751Z,6.60
2023-02-24T13:25:08.462Z,5.45
2023-02-24T13:27:54.485Z,7.60
2023-02-24T13:30:41.985Z,5.85
2023-02-24T13:33:18.726Z,4.88
2023-02-24T13:35:53.068Z,6.15
2023-02-24T13:38:31.669Z,5.25
2023-02-24T13:41:20.444Z,5.47
2023-02-24T13:44:01.830Z,5.07
2023-02-24T13:46:57.089Z,5.75
2023-02-24T13:50:07.009Z,5.20
2023-02-24T13:53:10.983Z,5.20
2023-02-24T13:56:20.141Z,5.57
2023-02-24T13:59:27.025Z,6.70
2023-02-24T14:02:12.315Z,5.38
2023-02-24T14:04:53.765Z,5.40
2023-02-24T14:07:25.506Z,5.07
2023-02-24T14:09:59.827Z,5.07
2023-02-24T14:12:30.694Z,5.18
2023-02-24T14:14:59.144Z,5.00
2023-02-24T14:17:28.882Z,5.78
2023-02-24T14:20:09.310Z,5.18
2023-02-24T14:22:56.659Z,5.07
2023-02-24T14:25:34.586Z,4.88
2023-02-24T14:28:03.142Z,4.85
2023-02-24T14:30:41.401Z,4.60
2023-02-24T14:33:27.408Z,4.60
2023-02-24T14:35:56.275Z,4.40
2023-02-24T14:38:39.344Z,4.88
2023-02-24T14:41:25.346Z,4.40
2023-02-24T14:43:55.395Z,4.97
2023-02-24T14:46:24.108Z,4.70
2023-02-24T14:48:56.182Z,4.30
2023-02-24T14:51:36.512Z,4.78
2023-02-24T14:54:11.872Z,4.75
2023-02-24T14:56:41.565Z,6.65
2023-02-24T15:01:48.210Z,5.00
2023-02-24T15:04:28.508Z,6.20
2023-02-24T15:06:56.465Z,5.47
2023-02-24T15:09:33.163Z,5.43
2023-02-24T15:12:11.293Z,19.23
2023-02-24T15:14:41.743Z,6.30
2023-02-24T15:17:17.130Z,5.32
2023-02-24T15:19:54.353Z,5.68
2023-02-24T15:22:25.421Z,5.20
2023-02-24T15:25:14.985Z,5.72
2023-02-24T15:30:55.759Z,5.90
2023-02-24T15:33:26.042Z,5.80
2023-02-24T15:35:59.704Z,5.68
2023-02-24T15:38:35.132Z,5.57
2023-02-24T15:41:05.617Z,6.00
2023-02-24T15:43:48.419Z,6.18
2023-02-24T15:46:19.100Z,5.55
2023-02-24T15:48:49.466Z,6.07
2023-02-24T15:51:29.471Z,6.35
2023-02-24T15:53:59.798Z,5.82
2023-02-24T15:56:29.354Z,7.10
2023-02-24T15:58:56.960Z,6.05
2023-02-24T16:01:26.219Z,5.35
2023-02-24T16:03:53.824Z,6.05
2023-02-24T16:06:23.979Z,5.43
2023-02-24T16:08:54.151Z,6.45
2023-02-24T16:11:26.911Z,5.78
2023-02-24T16:13:58.692Z,5.55
2023-02-24T16:16:27.505Z,5.53
2023-02-24T16:18:57.140Z,5.95
2023-02-24T16:21:25.047Z,5.18
2023-02-24T16:23:52.822Z,5.70
2023-02-24T16:26:23.485Z,6.10
2023-02-24T16:28:56.607Z,5.70
2023-02-24T16:31:25.805Z,5.93
2023-02-24T16:33:55.798Z,5.35
2023-02-24T16:36:25.446Z,6.30
2023-02-24T16:38:53.665Z,5.80
2023-02-24T16:41:22.120Z,5.22
2023-02-24T16:43:51.054Z,5.72
2023-02-24T16:46:23.625Z,5.18
2023-02-24T16:48:53.593Z,5.47
2023-02-24T16:51:26.345Z,5.78
2023-02-24T16:53:56.249Z,5.25
2023-02-24T16:56:24.173Z,5.35
2023-02-24T16:58:51.806Z,5.43
2023-02-24T17:01:21.496Z,4.75
2023-02-24T17:03:52.126Z,5.32
2023-02-24T17:06:22.255Z,4.53
2023-02-24T17:08:50.674Z,4.95
2023-02-24T17:11:20.857Z,4.35
2023-02-24T17:13:48.509Z,4.85
2023-02-24T17:16:21.773Z,4.70
2023-02-24T17:18:49.934Z,4.55
2023-02-24T17:21:18.187Z,5.05
2023-02-24T17:23:45.973Z,4.57
2023-02-24T17:26:15.489Z,4.72
2023-02-24T17:28:43.883Z,4.75
2023-02-24T17:31:12.423Z,4.28
2023-02-24T17:33:41.039Z,5.85
2023-02-24T17:36:08.675Z,4.18
2023-02-24T17:38:36.325Z,5.10
2023-02-24T17:41:05.656Z,4.38
2023-02-24T17:43:33.777Z,4.60
2023-02-24T17:46:03.198Z,4.15
2023-02-24T17:48:34.013Z,4.10
2023-02-24T17:51:02.831Z,4.45
2023-02-24T17:53:32.305Z,4.53
2023-02-24T17:56:04.784Z,4.40
2023-02-24T17:58:34.143Z,4.22
2023-02-24T18:01:03.508Z,4.60
2023-02-24T18:03:36.130Z,4.55
2023-02-24T18:06:09.308Z,4.10
2023-02-24T18:08:38.152Z,4.00
2023-02-24T18:11:07.657Z,4.00
2023-02-24T18:13:39.711Z,4.80
2023-02-24T18:16:16.075Z,4.25
2023-02-24T18:18:43.928Z,4.18
2023-02-24T18:21:11.513Z,4.47
2023-02-24T18:23:40.596Z,4.85
2023-02-24T18:26:12.288Z,4.28
2023-02-24T18:28:41.020Z,4.65
2023-02-24T18:31:14.245Z,4.85
2023-02-24T18:33:43.701Z,5.65
2023-02-24T18:36:12.006Z,4.70
2023-02-24T18:38:41.317Z,4.80
2023-02-24T18:41:15.797Z,4.07
2023-02-24T18:43:43.610Z,4.38
2023-02-24T18:46:13.528Z,4.63
2023-02-24T18:48:44.416Z,5.85
2023-02-24T18:51:17.296Z,4.72
2023-02-24T18:53:45.526Z,4.90
2023-02-24T18:56:16.952Z,4.55
2023-02-24T18:58:52.596Z,4.88
2023-02-24T19:01:23.778Z,4.97
2023-02-24T19:03:52.043Z,5.07
2023-02-24T19:06:21.534Z,4.68
2023-02-24T19:08:54.848Z,4.32
2023-02-24T19:11:27.433Z,5.00
2023-02-24T19:13:56.112Z,5.05
2023-02-24T19:16:23.953Z,5.00
2023-02-24T19:18:53.656Z,5.60
2023-02-24T19:21:21.526Z,5.45
2023-02-24T19:23:50.397Z,4.57
2023-02-24T19:26:22.387Z,6.00
2023-02-24T19:28:51.019Z,5.57
2023-02-24T19:31:24.497Z,5.50
2023-02-24T19:33:54.125Z,5.93
2023-02-24T19:36:23.704Z,5.82
2023-02-24T19:38:52.493Z,6.40
2023-02-24T19:41:20.421Z,5.55
2023-02-24T19:43:48.150Z,7.03
2023-02-24T19:46:17.278Z,5.57
2023-02-24T19:48:46.085Z,6.40
2023-02-24T19:51:23.079Z,6.33
2023-02-24T19:53:56.260Z,6.80
2023-02-24T19:56:28.761Z,6.20
2023-02-24T19:58:59.368Z,6.50
2023-02-24T20:01:32.007Z,7.00
2023-02-24T20:04:02.677Z,6.90
2023-02-24T20:06:35.708Z,6.93
2023-02-24T20:09:08.694Z,7.53
2023-02-24T20:11:39.202Z,6.43
2023-02-24T20:14:11.241Z,7.55
2023-02-24T20:16:41.824Z,7.75
2023-02-24T20:19:13.739Z,7.03
2023-02-24T20:21:42.452Z,7.82
2023-02-24T20:24:14.705Z,8.68
2023-02-24T20:26:47.094Z,7.78
2023-02-24T20:29:17.366Z,6.97
2023-02-24T20:31:47.386Z,7.53
2023-02-24T20:36:45.810Z,7.13
2023-02-24T20:39:13.962Z,7.15
2023-02-24T20:41:41.977Z,7.50
2023-02-24T20:44:11.530Z,7.53
2023-02-24T20:46:39.208Z,7.28
2023-02-24T20:49:10.794Z,8.13
2023-02-24T20:51:38.735Z,8.10
2023-02-24T20:54:08.613Z,8.57
2023-02-24T20:56:39.158Z,7.88
2023-02-24T20:59:11.438Z,8.35
2023-02-24T21:01:39.958Z,8.07
2023-02-24T21:04:08.923Z,8.57
2023-02-24T21:06:37.131Z,8.43
2023-02-24T21:09:05.646Z,8.60
2023-02-24T21:11:34.574Z,8.80
2023-02-24T21:14:02.807Z,8.43
2023-02-24T21:16:30.927Z,8.88
2023-02-24T21:18:58.971Z,12.82
2023-02-24T21:21:27.292Z,8.88
2023-02-24T21:23:57.516Z,8.23
2023-02-24T21:26:27.087Z,8.45
2023-02-24T21:28:57.947Z,9.32
2023-02-24T21:31:26.600Z,8.80
2023-02-24T21:33:55.230Z,8.70
2023-02-24T21:36:26.703Z,9.23
2023-02-24T21:38:55.486Z,9.20
2023-02-24T21:41:23.946Z,8.80
2023-02-24T21:43:55.039Z,9.60
2023-02-24T21:46:28.606Z,9.68
2023-02-24T21:48:58.178Z,9.82
2023-02-24T21:51:27.583Z,10.25
2023-02-24T21:53:56.899Z,9.98
2023-02-24T21:56:28.247Z,10.38
2023-02-24T21:59:01.201Z,9.60
2023-02-24T22:01:32.918Z,9.73
2023-02-24T22:04:03.180Z,9.70
2023-02-24T22:06:33.310Z,10.02
2023-02-24T22:09:03.255Z,9.65
2023-02-24T22:11:35.340Z,8.95
2023-02-24T22:14:07.510Z,10.07
2023-02-24T22:16:35.648Z,9.98
2023-02-24T22:19:03.959Z,10.18
2023-02-24T22:21:32.859Z,10.27
2023-02-24T22:24:02.909Z,10.55
2023-02-24T22:26:32.242Z,12.35
2023-02-24T22:29:00.877Z,9.63
2023-02-24T22:31:32.798Z,10.32
2023-02-24T22:34:01.424Z,10.35
2023-02-24T22:36:31.878Z,9.68
2023-02-24T22:39:01.151Z,10.48
2023-02-24T22:41:31.635Z,13.23
2023-02-24T22:44:00.360Z,10.70
2023-02-24T22:46:31.167Z,12.82
2023-02-24T22:49:00.499Z,10.70
2023-02-24T22:51:28.554Z,10.25
2023-02-24T22:53:56.744Z,11.13
2023-02-24T22:56:26.956Z,10.95
2023-02-24T22:58:54.952Z,11.45
2023-02-24T23:01:28.144Z,11.10
2023-02-24T23:03:58.535Z,10.63
2023-02-24T23:06:26.551Z,9.65
2023-02-24T23:08:54.731Z,9.32
2023-02-24T23:11:29.869Z,9.25
2023-02-24T23:14:00.494Z,9.48
2023-02-24T23:16:31.855Z,9.63
2023-02-24T23:19:04.333Z,10.40
2023-02-24T23:21:34.214Z,9.57
2023-02-24T23:24:04.207Z,10.05
2023-02-24T23:26:40.711Z,9.75
2023-02-24T23:29:10.402Z,12.00
2023-02-24T23:31:38.934Z,9.60
2023-02-24T23:34:09.898Z,9.43
2023-02-24T23:36:40.935Z,11.30
2023-02-24T23:39:14.434Z,13.27
2023-02-24T23:41:42.427Z,9.43
2023-02-24T23:44:10.326Z,9.90
2023-02-24T23:46:37.967Z,9.40
2023-02-24T23:49:11.588Z,9.93
2023-02-24T23:51:48.035Z,9.20
2023-02-24T23:54:18.267Z,9.55
2023-02-24T23:56:46.651Z,9.32
2023-02-24T23:59:21.321Z,9.25
